sensor_id;sensor_type;location;lat;lon;timestamp;P1;durP1;ratioP1;P2;durP2;ratioP2
3311;SDS011;1668;49.648;8.570;2022-12-29T00:00:19;2.83;;;2.30;;
3311;SDS011;1668;49.648;8.570;2022-12-29T00:02:48;4.20;;;2.73;;
3311;SDS011;1668;49.648;8.570;2022-12-29T00:05:15;4.23;;;3.07;;
3311;SDS011;1668;49.648;8.570;2022-12-29T00:07:42;5.57;;;3.30;;
3311;SDS011;1668;49.648;8.570;2022-12-29T00:10:08;4.97;;;2.70;;
3311;SDS011;1668;49.648;8.570;2022-12-29T00:12:36;4.20;;;2.67;;
3311;SDS011;1668;49.648;8.570;2022-12-29T00:15:20;4.40;;;2.70;;
3311;SDS011;1668;49.648;8.570;2022-12-29T00:18:07;4.13;;;2.50;;
3311;SDS011;1668;49.648;8.570;2022-12-29T00:20:34;4.10;;;2.13;;
3311;SDS011;1668;49.648;8.570;2022-12-29T00:23:20;3.43;;;2.10;;
3311;SDS011;1668;49.648;8.570;2022-12-29T00:26:08;5.83;;;2.30;;
3311;SDS011;1668;49.648;8.570;2022-12-29T00:28:57;3.80;;;2.33;;
3311;SDS011;1668;49.648;8.570;2022-12-29T00:31:41;3.43;;;2.50;;
3311;SDS011;1668;49.648;8.570;2022-12-29T00:34:26;3.97;;;2.43;;
3311;SDS011;1668;49.648;8.570;2022-12-29T00:37:11;2.97;;;2.30;;
3311;SDS011;1668;49.648;8.570;2022-12-29T00:39:38;3.60;;;2.07;;
3311;SDS011;1668;49.648;8.570;2022-12-29T00:42:22;3.90;;;2.10;;
3311;SDS011;1668;49.648;8.570;2022-12-29T00:45:07;3.37;;;2.30;;
3311;SDS011;1668;49.648;8.570;2022-12-29T00:47:34;3.60;;;1.63;;
3311;SDS011;1668;49.648;8.570;2022-12-29T00:50:02;5.20;;;2.00;;
3311;SDS011;1668;49.648;8.570;2022-12-29T00:52:29;3.50;;;2.17;;
3311;SDS011;1668;49.648;8.570;2022-12-29T00:54:55;2.70;;;1.50;;
3311;SDS011;1668;49.648;8.570;2022-12-29T00:57:22;3.27;;;1.80;;
3311;SDS011;1668;49.648;8.570;2022-12-29T00:59:49;6.63;;;2.10;;
3311;SDS011;1668;49.648;8.570;2022-12-29T01:02:16;2.30;;;1.70;;
3311;SDS011;1668;49.648;8.570;2022-12-29T01:04:43;2.27;;;1.47;;
3311;SDS011;1668;49.648;8.570;2022-12-29T01:07:12;4.37;;;1.60;;
3311;SDS011;1668;49.648;8.570;2022-12-29T01:09:39;2.30;;;1.03;;
3311;SDS011;1668;49.648;8.570;2022-12-29T01:12:23;1.90;;;1.40;;
3311;SDS011;1668;49.648;8.570;2022-12-29T01:15:04;4.30;;;1.53;;
3311;SDS011;1668;49.648;8.570;2022-12-29T01:17:32;3.80;;;1.70;;
3311;SDS011;1668;49.648;8.570;2022-12-29T01:19:59;2.93;;;1.47;;
3311;SDS011;1668;49.648;8.570;2022-12-29T01:22:27;4.00;;;1.43;;
3311;SDS011;1668;49.648;8.570;2022-12-29T01:24:54;6.00;;;1.57;;
3311;SDS011;1668;49.648;8.570;2022-12-29T01:27:21;4.27;;;1.63;;
3311;SDS011;1668;49.648;8.570;2022-12-29T01:29:48;2.50;;;1.50;;
3311;SDS011;1668;49.648;8.570;2022-12-29T01:32:15;3.83;;;1.50;;
3311;SDS011;1668;49.648;8.570;2022-12-29T01:34:42;2.73;;;1.57;;
3311;SDS011;1668;49.648;8.570;2022-12-29T01:37:09;2.50;;;1.23;;
3311;SDS011;1668;49.648;8.570;2022-12-29T01:39:37;1.63;;;1.20;;
3311;SDS011;1668;49.648;8.570;2022-12-29T01:42:04;1.43;;;1.20;;
3311;SDS011;1668;49.648;8.570;2022-12-29T01:44:50;5.93;;;1.67;;
3311;SDS011;1668;49.648;8.570;2022-12-29T01:47:21;2.17;;;1.03;;
3311;SDS011;1668;49.648;8.570;2022-12-29T01:49:55;2.20;;;1.13;;
3311;SDS011;1668;49.648;8.570;2022-12-29T01:52:25;2.00;;;1.37;;
3311;SDS011;1668;49.648;8.570;2022-12-29T01:54:57;3.73;;;1.17;;
3311;SDS011;1668;49.648;8.570;2022-12-29T01:57:26;5.07;;;1.27;;
3311;SDS011;1668;49.648;8.570;2022-12-29T01:59:56;1.60;;;1.20;;
3311;SDS011;1668;49.648;8.570;2022-12-29T02:02:26;1.63;;;1.10;;
3311;SDS011;1668;49.648;8.570;2022-12-29T02:04:54;3.23;;;1.03;;
3311;SDS011;1668;49.648;8.570;2022-12-29T02:07:23;2.70;;;1.00;;
3311;SDS011;1668;49.648;8.570;2022-12-29T02:09:53;1.37;;;0.93;;
3311;SDS011;1668;49.648;8.570;2022-12-29T02:12:22;5.13;;;1.20;;
3311;SDS011;1668;49.648;8.570;2022-12-29T02:14:51;2.80;;;1.00;;
3311;SDS011;1668;49.648;8.570;2022-12-29T02:17:24;1.37;;;1.00;;
3311;SDS011;1668;49.648;8.570;2022-12-29T02:20:13;1.67;;;0.93;;
3311;SDS011;1668;49.648;8.570;2022-12-29T02:29:21;4.17;;;1.47;;
3311;SDS011;1668;49.648;8.570;2022-12-29T02:32:09;4.50;;;1.93;;
3311;SDS011;1668;49.648;8.570;2022-12-29T02:34:47;4.90;;;2.43;;
3311;SDS011;1668;49.648;8.570;2022-12-29T02:37:22;3.40;;;1.77;;
3311;SDS011;1668;49.648;8.570;2022-12-29T02:39:53;2.23;;;1.37;;
3311;SDS011;1668;49.648;8.570;2022-12-29T02:42:29;1.77;;;1.40;;
3311;SDS011;1668;49.648;8.570;2022-12-29T02:45:03;1.40;;;1.00;;
3311;SDS011;1668;49.648;8.570;2022-12-29T02:47:37;2.70;;;1.20;;
3311;SDS011;1668;49.648;8.570;2022-12-29T02:50:11;2.50;;;1.00;;
3311;SDS011;1668;49.648;8.570;2022-12-29T02:52:44;2.13;;;0.93;;
3311;SDS011;1668;49.648;8.570;2022-12-29T02:55:14;2.87;;;1.23;;
3311;SDS011;1668;49.648;8.570;2022-12-29T02:57:41;2.77;;;0.90;;
3311;SDS011;1668;49.648;8.570;2022-12-29T03:00:08;1.57;;;1.20;;
3311;SDS011;1668;49.648;8.570;2022-12-29T03:02:50;2.77;;;1.10;;
3311;SDS011;1668;49.648;8.570;2022-12-29T03:05:37;1.97;;;1.00;;
3311;SDS011;1668;49.648;8.570;2022-12-29T03:08:18;2.40;;;1.17;;
3311;SDS011;1668;49.648;8.570;2022-12-29T03:10:55;2.43;;;1.00;;
3311;SDS011;1668;49.648;8.570;2022-12-29T03:13:28;3.17;;;0.90;;
3311;SDS011;1668;49.648;8.570;2022-12-29T03:16:19;3.33;;;1.30;;
3311;SDS011;1668;49.648;8.570;2022-12-29T03:18:54;1.87;;;1.17;;
3311;SDS011;1668;49.648;8.570;2022-12-29T03:21:27;2.00;;;0.90;;
3311;SDS011;1668;49.648;8.570;2022-12-29T03:24:23;3.60;;;1.20;;
3311;SDS011;1668;49.648;8.570;2022-12-29T03:26:53;3.10;;;1.10;;
3311;SDS011;1668;49.648;8.570;2022-12-29T03:29:23;4.90;;;1.03;;
3311;SDS011;1668;49.648;8.570;2022-12-29T03:31:50;1.43;;;1.10;;
3311;SDS011;1668;49.648;8.570;2022-12-29T03:34:21;2.50;;;1.10;;
3311;SDS011;1668;49.648;8.570;2022-12-29T03:36:52;5.57;;;1.40;;
3311;SDS011;1668;49.648;8.570;2022-12-29T03:39:22;2.60;;;1.20;;
3311;SDS011;1668;49.648;8.570;2022-12-29T03:41:58;4.80;;;1.73;;
3311;SDS011;1668;49.648;8.570;2022-12-29T03:44:32;1.80;;;1.37;;
3311;SDS011;1668;49.648;8.570;2022-12-29T03:47:01;4.00;;;1.60;;
3311;SDS011;1668;49.648;8.570;2022-12-29T03:49:29;2.30;;;1.17;;
3311;SDS011;1668;49.648;8.570;2022-12-29T03:51:56;1.60;;;1.23;;
3311;SDS011;1668;49.648;8.570;2022-12-29T03:54:23;3.07;;;1.37;;
3311;SDS011;1668;49.648;8.570;2022-12-29T03:56:50;2.17;;;1.30;;
3311;SDS011;1668;49.648;8.570;2022-12-29T03:59:17;1.50;;;1.23;;
3311;SDS011;1668;49.648;8.570;2022-12-29T04:01:44;2.30;;;1.07;;
3311;SDS011;1668;49.648;8.570;2022-12-29T04:04:11;2.40;;;1.23;;
3311;SDS011;1668;49.648;8.570;2022-12-29T04:06:40;1.80;;;1.27;;
3311;SDS011;1668;49.648;8.570;2022-12-29T04:09:07;2.37;;;1.10;;
3311;SDS011;1668;49.648;8.570;2022-12-29T04:11:35;4.30;;;1.40;;
3311;SDS011;1668;49.648;8.570;2022-12-29T04:14:02;4.30;;;1.57;;
3311;SDS011;1668;49.648;8.570;2022-12-29T04:16:29;3.20;;;1.00;;
3311;SDS011;1668;49.648;8.570;2022-12-29T04:18:56;2.90;;;1.40;;
3311;SDS011;1668;49.648;8.570;2022-12-29T04:21:23;1.43;;;1.00;;
3311;SDS011;1668;49.648;8.570;2022-12-29T04:23:51;2.80;;;1.30;;
3311;SDS011;1668;49.648;8.570;2022-12-29T04:26:18;2.80;;;1.10;;
3311;SDS011;1668;49.648;8.570;2022-12-29T04:28:45;3.90;;;1.47;;
3311;SDS011;1668;49.648;8.570;2022-12-29T04:31:12;6.03;;;1.50;;
3311;SDS011;1668;49.648;8.570;2022-12-29T04:33:39;2.70;;;1.20;;
3311;SDS011;1668;49.648;8.570;2022-12-29T04:36:06;2.37;;;1.20;;
3311;SDS011;1668;49.648;8.570;2022-12-29T04:38:33;4.80;;;1.57;;
3311;SDS011;1668;49.648;8.570;2022-12-29T04:41:01;2.30;;;1.20;;
3311;SDS011;1668;49.648;8.570;2022-12-29T04:43:28;3.77;;;1.40;;
3311;SDS011;1668;49.648;8.570;2022-12-29T04:45:55;3.40;;;1.60;;
3311;SDS011;1668;49.648;8.570;2022-12-29T04:48:22;2.93;;;1.33;;
3311;SDS011;1668;49.648;8.570;2022-12-29T04:50:49;4.60;;;1.40;;
3311;SDS011;1668;49.648;8.570;2022-12-29T04:53:17;2.43;;;1.30;;
3311;SDS011;1668;49.648;8.570;2022-12-29T04:55:47;3.07;;;1.50;;
3311;SDS011;1668;49.648;8.570;2022-12-29T04:58:17;7.43;;;1.60;;
3311;SDS011;1668;49.648;8.570;2022-12-29T05:00:44;1.90;;;1.40;;
3311;SDS011;1668;49.648;8.570;2022-12-29T05:03:10;2.23;;;1.30;;
3311;SDS011;1668;49.648;8.570;2022-12-29T05:05:37;2.40;;;1.60;;
3311;SDS011;1668;49.648;8.570;2022-12-29T05:08:05;2.93;;;1.33;;
3311;SDS011;1668;49.648;8.570;2022-12-29T05:10:32;3.23;;;1.40;;
3311;SDS011;1668;49.648;8.570;2022-12-29T05:12:58;2.80;;;1.67;;
3311;SDS011;1668;49.648;8.570;2022-12-29T05:15:27;4.70;;;1.27;;
3311;SDS011;1668;49.648;8.570;2022-12-29T05:17:54;4.00;;;1.40;;
3311;SDS011;1668;49.648;8.570;2022-12-29T05:20:21;2.60;;;1.60;;
3311;SDS011;1668;49.648;8.570;2022-12-29T05:22:48;4.93;;;1.47;;
3311;SDS011;1668;49.648;8.570;2022-12-29T05:25:15;2.60;;;1.40;;
3311;SDS011;1668;49.648;8.570;2022-12-29T05:27:42;2.13;;;1.40;;
3311;SDS011;1668;49.648;8.570;2022-12-29T05:30:09;2.43;;;1.10;;
3311;SDS011;1668;49.648;8.570;2022-12-29T05:32:38;2.33;;;1.60;;
3311;SDS011;1668;49.648;8.570;2022-12-29T05:35:05;2.97;;;1.30;;
3311;SDS011;1668;49.648;8.570;2022-12-29T05:37:33;3.10;;;1.30;;
3311;SDS011;1668;49.648;8.570;2022-12-29T05:40:00;5.67;;;1.20;;
3311;SDS011;1668;49.648;8.570;2022-12-29T05:42:27;2.23;;;1.47;;
3311;SDS011;1668;49.648;8.570;2022-12-29T05:44:54;2.20;;;1.30;;
3311;SDS011;1668;49.648;8.570;2022-12-29T05:47:21;1.57;;;1.27;;
3311;SDS011;1668;49.648;8.570;2022-12-29T05:49:49;3.13;;;1.30;;
3311;SDS011;1668;49.648;8.570;2022-12-29T05:52:16;3.00;;;1.20;;
3311;SDS011;1668;49.648;8.570;2022-12-29T05:54:43;2.50;;;1.07;;
3311;SDS011;1668;49.648;8.570;2022-12-29T05:57:10;2.90;;;1.10;;
3311;SDS011;1668;49.648;8.570;2022-12-29T05:59:37;1.73;;;1.00;;
3311;SDS011;1668;49.648;8.570;2022-12-29T06:02:04;1.77;;;1.27;;
3311;SDS011;1668;49.648;8.570;2022-12-29T06:04:31;6.87;;;1.20;;
3311;SDS011;1668;49.648;8.570;2022-12-29T06:06:59;3.73;;;1.30;;
3311;SDS011;1668;49.648;8.570;2022-12-29T06:09:26;1.87;;;1.30;;
3311;SDS011;1668;49.648;8.570;2022-12-29T06:11:53;2.90;;;1.30;;
3311;SDS011;1668;49.648;8.570;2022-12-29T06:14:20;2.00;;;1.20;;
3311;SDS011;1668;49.648;8.570;2022-12-29T06:16:46;4.70;;;1.80;;
3311;SDS011;1668;49.648;8.570;2022-12-29T06:19:13;1.43;;;1.20;;
3311;SDS011;1668;49.648;8.570;2022-12-29T06:21:40;2.23;;;1.50;;
3311;SDS011;1668;49.648;8.570;2022-12-29T06:24:08;1.77;;;1.00;;
3311;SDS011;1668;49.648;8.570;2022-12-29T06:26:36;2.40;;;1.20;;
3311;SDS011;1668;49.648;8.570;2022-12-29T06:29:03;2.23;;;1.37;;
3311;SDS011;1668;49.648;8.570;2022-12-29T06:31:30;3.50;;;1.50;;
3311;SDS011;1668;49.648;8.570;2022-12-29T06:33:57;5.20;;;1.27;;
3311;SDS011;1668;49.648;8.570;2022-12-29T06:36:24;2.10;;;1.27;;
3311;SDS011;1668;49.648;8.570;2022-12-29T06:38:51;2.60;;;1.53;;
3311;SDS011;1668;49.648;8.570;2022-12-29T06:41:20;3.50;;;1.23;;
3311;SDS011;1668;49.648;8.570;2022-12-29T06:43:47;2.37;;;1.30;;
3311;SDS011;1668;49.648;8.570;2022-12-29T06:46:14;2.30;;;1.63;;
3311;SDS011;1668;49.648;8.570;2022-12-29T06:48:40;3.10;;;1.40;;
3311;SDS011;1668;49.648;8.570;2022-12-29T06:51:08;4.93;;;1.57;;
3311;SDS011;1668;49.648;8.570;2022-12-29T06:53:35;1.60;;;1.20;;
3311;SDS011;1668;49.648;8.570;2022-12-29T06:56:02;1.80;;;1.30;;
3311;SDS011;1668;49.648;8.570;2022-12-29T06:58:30;4.43;;;1.80;;
3311;SDS011;1668;49.648;8.570;2022-12-29T07:00:57;2.07;;;1.60;;
3311;SDS011;1668;49.648;8.570;2022-12-29T07:03:24;2.30;;;1.57;;
3311;SDS011;1668;49.648;8.570;2022-12-29T07:05:51;4.97;;;1.40;;
3311;SDS011;1668;49.648;8.570;2022-12-29T07:08:19;1.70;;;1.27;;
3311;SDS011;1668;49.648;8.570;2022-12-29T07:10:46;4.30;;;1.73;;
3311;SDS011;1668;49.648;8.570;2022-12-29T07:13:13;3.27;;;2.00;;
3311;SDS011;1668;49.648;8.570;2022-12-29T07:15:41;3.23;;;1.57;;
3311;SDS011;1668;49.648;8.570;2022-12-29T07:18:08;2.50;;;1.70;;
3311;SDS011;1668;49.648;8.570;2022-12-29T07:20:35;2.90;;;1.63;;
3311;SDS011;1668;49.648;8.570;2022-12-29T07:23:02;3.40;;;2.37;;
3311;SDS011;1668;49.648;8.570;2022-12-29T07:25:29;4.80;;;2.80;;
3311;SDS011;1668;49.648;8.570;2022-12-29T07:27:58;3.23;;;1.93;;
3311;SDS011;1668;49.648;8.570;2022-12-29T07:30:25;2.90;;;1.90;;
3311;SDS011;1668;49.648;8.570;2022-12-29T07:32:53;2.27;;;1.43;;
3311;SDS011;1668;49.648;8.570;2022-12-29T07:35:20;2.47;;;2.10;;
3311;SDS011;1668;49.648;8.570;2022-12-29T07:37:47;3.40;;;2.00;;
3311;SDS011;1668;49.648;8.570;2022-12-29T07:40:14;2.73;;;1.70;;
3311;SDS011;1668;49.648;8.570;2022-12-29T07:42:41;2.30;;;1.53;;
3311;SDS011;1668;49.648;8.570;2022-12-29T07:45:08;5.20;;;2.00;;
3311;SDS011;1668;49.648;8.570;2022-12-29T07:47:36;2.47;;;1.63;;
3311;SDS011;1668;49.648;8.570;2022-12-29T07:50:05;3.33;;;1.57;;
3311;SDS011;1668;49.648;8.570;2022-12-29T07:52:32;5.90;;;1.80;;
3311;SDS011;1668;49.648;8.570;2022-12-29T07:54:59;2.90;;;2.00;;
3311;SDS011;1668;49.648;8.570;2022-12-29T07:57:26;6.73;;;2.43;;
3311;SDS011;1668;49.648;8.570;2022-12-29T07:59:53;4.90;;;2.77;;
3311;SDS011;1668;49.648;8.570;2022-12-29T08:02:20;4.10;;;2.60;;
3311;SDS011;1668;49.648;8.570;2022-12-29T08:04:47;6.03;;;2.50;;
3311;SDS011;1668;49.648;8.570;2022-12-29T08:07:15;4.87;;;2.00;;
3311;SDS011;1668;49.648;8.570;2022-12-29T08:09:43;3.10;;;2.23;;
3311;SDS011;1668;49.648;8.570;2022-12-29T08:12:10;7.53;;;3.87;;
3311;SDS011;1668;49.648;8.570;2022-12-29T08:14:37;5.00;;;2.93;;
3311;SDS011;1668;49.648;8.570;2022-12-29T08:17:04;5.53;;;2.23;;
3311;SDS011;1668;49.648;8.570;2022-12-29T08:19:31;4.17;;;3.23;;
3311;SDS011;1668;49.648;8.570;2022-12-29T08:21:58;6.17;;;3.50;;
3311;SDS011;1668;49.648;8.570;2022-12-29T08:24:26;2.40;;;1.97;;
3311;SDS011;1668;49.648;8.570;2022-12-29T08:26:54;2.83;;;2.10;;
3311;SDS011;1668;49.648;8.570;2022-12-29T08:29:21;9.13;;;2.80;;
3311;SDS011;1668;49.648;8.570;2022-12-29T08:31:48;7.40;;;3.90;;
3311;SDS011;1668;49.648;8.570;2022-12-29T08:34:15;4.03;;;2.60;;
3311;SDS011;1668;49.648;8.570;2022-12-29T08:36:42;5.93;;;2.80;;
3311;SDS011;1668;49.648;8.570;2022-12-29T08:39:09;3.33;;;2.40;;
3311;SDS011;1668;49.648;8.570;2022-12-29T08:41:37;5.07;;;2.33;;
3311;SDS011;1668;49.648;8.570;2022-12-29T08:44:04;3.87;;;2.50;;
3311;SDS011;1668;49.648;8.570;2022-12-29T08:46:31;2.37;;;1.80;;
3311;SDS011;1668;49.648;8.570;2022-12-29T08:48:58;3.50;;;2.40;;
3311;SDS011;1668;49.648;8.570;2022-12-29T08:51:25;6.17;;;2.90;;
3311;SDS011;1668;49.648;8.570;2022-12-29T08:53:52;2.90;;;2.13;;
3311;SDS011;1668;49.648;8.570;2022-12-29T08:56:19;5.07;;;2.43;;
3311;SDS011;1668;49.648;8.570;2022-12-29T08:58:47;3.93;;;2.60;;
3311;SDS011;1668;49.648;8.570;2022-12-29T09:01:14;6.10;;;1.80;;
3311;SDS011;1668;49.648;8.570;2022-12-29T09:03:41;3.20;;;2.37;;
3311;SDS011;1668;49.648;8.570;2022-12-29T09:06:08;4.30;;;2.30;;
3311;SDS011;1668;49.648;8.570;2022-12-29T09:08:36;9.50;;;4.40;;
3311;SDS011;1668;49.648;8.570;2022-12-29T09:11:06;11.77;;;4.27;;
3311;SDS011;1668;49.648;8.570;2022-12-29T09:13:34;8.63;;;4.37;;
3311;SDS011;1668;49.648;8.570;2022-12-29T09:16:02;11.10;;;3.80;;
3311;SDS011;1668;49.648;8.570;2022-12-29T09:18:30;8.00;;;4.67;;
3311;SDS011;1668;49.648;8.570;2022-12-29T09:20:57;8.27;;;4.67;;
3311;SDS011;1668;49.648;8.570;2022-12-29T09:23:24;5.80;;;3.50;;
3311;SDS011;1668;49.648;8.570;2022-12-29T09:25:51;7.43;;;4.07;;
3311;SDS011;1668;49.648;8.570;2022-12-29T09:28:19;8.47;;;4.33;;
3311;SDS011;1668;49.648;8.570;2022-12-29T09:30:46;11.33;;;4.90;;
3311;SDS011;1668;49.648;8.570;2022-12-29T09:33:15;8.97;;;4.97;;
3311;SDS011;1668;49.648;8.570;2022-12-29T09:35:42;11.07;;;5.70;;
3311;SDS011;1668;49.648;8.570;2022-12-29T09:38:10;8.93;;;5.33;;
3311;SDS011;1668;49.648;8.570;2022-12-29T09:40:38;4.73;;;3.10;;
3311;SDS011;1668;49.648;8.570;2022-12-29T09:43:11;4.97;;;2.43;;
3311;SDS011;1668;49.648;8.570;2022-12-29T09:46:03;6.30;;;2.87;;
3311;SDS011;1668;49.648;8.570;2022-12-29T09:48:39;3.70;;;2.47;;
3311;SDS011;1668;49.648;8.570;2022-12-29T09:51:11;6.07;;;3.30;;
3311;SDS011;1668;49.648;8.570;2022-12-29T09:53:41;3.93;;;2.57;;
3311;SDS011;1668;49.648;8.570;2022-12-29T09:56:13;5.17;;;2.37;;
3311;SDS011;1668;49.648;8.570;2022-12-29T09:58:42;2.37;;;1.90;;
3311;SDS011;1668;49.648;8.570;2022-12-29T10:01:17;2.83;;;2.13;;
3311;SDS011;1668;49.648;8.570;2022-12-29T10:03:55;5.10;;;1.83;;
3311;SDS011;1668;49.648;8.570;2022-12-29T10:06:25;5.17;;;1.80;;
3311;SDS011;1668;49.648;8.570;2022-12-29T10:09:01;2.83;;;1.93;;
3311;SDS011;1668;49.648;8.570;2022-12-29T10:11:33;4.70;;;1.77;;
3311;SDS011;1668;49.648;8.570;2022-12-29T10:14:23;4.53;;;1.60;;
3311;SDS011;1668;49.648;8.570;2022-12-29T10:17:00;1.97;;;1.63;;
3311;SDS011;1668;49.648;8.570;2022-12-29T10:19:41;3.83;;;1.83;;
3311;SDS011;1668;49.648;8.570;2022-12-29T10:22:21;3.10;;;1.77;;
3311;SDS011;1668;49.648;8.570;2022-12-29T10:25:06;2.67;;;1.50;;
3311;SDS011;1668;49.648;8.570;2022-12-29T10:27:40;7.57;;;1.53;;
3311;SDS011;1668;49.648;8.570;2022-12-29T10:30:10;3.00;;;1.87;;
3311;SDS011;1668;49.648;8.570;2022-12-29T10:32:39;3.00;;;1.97;;
3311;SDS011;1668;49.648;8.570;2022-12-29T10:35:14;5.40;;;1.93;;
3311;SDS011;1668;49.648;8.570;2022-12-29T10:37:45;4.70;;;2.30;;
3311;SDS011;1668;49.648;8.570;2022-12-29T10:40:19;2.73;;;2.03;;
3311;SDS011;1668;49.648;8.570;2022-12-29T10:42:52;3.93;;;1.80;;
3311;SDS011;1668;49.648;8.570;2022-12-29T10:45:20;3.23;;;1.63;;
3311;SDS011;1668;49.648;8.570;2022-12-29T10:47:52;3.47;;;1.90;;
3311;SDS011;1668;49.648;8.570;2022-12-29T10:50:24;2.20;;;1.60;;
3311;SDS011;1668;49.648;8.570;2022-12-29T10:52:51;5.77;;;1.60;;
3311;SDS011;1668;49.648;8.570;2022-12-29T10:55:21;2.47;;;1.97;;
3311;SDS011;1668;49.648;8.570;2022-12-29T10:57:53;2.63;;;2.00;;
3311;SDS011;1668;49.648;8.570;2022-12-29T11:00:23;3.57;;;2.17;;
3311;SDS011;1668;49.648;8.570;2022-12-29T11:02:54;2.83;;;2.00;;
3311;SDS011;1668;49.648;8.570;2022-12-29T11:05:37;3.17;;;1.97;;
3311;SDS011;1668;49.648;8.570;2022-12-29T11:08:08;4.20;;;2.27;;
3311;SDS011;1668;49.648;8.570;2022-12-29T11:10:39;3.10;;;1.90;;
3311;SDS011;1668;49.648;8.570;2022-12-29T11:13:12;4.77;;;1.90;;
3311;SDS011;1668;49.648;8.570;2022-12-29T11:15:42;4.77;;;1.80;;
3311;SDS011;1668;49.648;8.570;2022-12-29T11:18:20;3.00;;;2.00;;
3311;SDS011;1668;49.648;8.570;2022-12-29T11:20:50;2.90;;;1.60;;
3311;SDS011;1668;49.648;8.570;2022-12-29T11:23:23;2.40;;;1.70;;
3311;SDS011;1668;49.648;8.570;2022-12-29T11:26:05;2.40;;;1.57;;
3311;SDS011;1668;49.648;8.570;2022-12-29T11:28:34;2.13;;;1.40;;
3311;SDS011;1668;49.648;8.570;2022-12-29T11:31:03;2.10;;;1.63;;
3311;SDS011;1668;49.648;8.570;2022-12-29T11:33:32;2.80;;;2.00;;
3311;SDS011;1668;49.648;8.570;2022-12-29T11:36:02;3.73;;;2.40;;
3311;SDS011;1668;49.648;8.570;2022-12-29T11:38:33;3.73;;;1.87;;
3311;SDS011;1668;49.648;8.570;2022-12-29T11:41:02;5.00;;;2.17;;
3311;SDS011;1668;49.648;8.570;2022-12-29T11:43:32;2.37;;;1.50;;
3311;SDS011;1668;49.648;8.570;2022-12-29T11:46:03;5.00;;;1.33;;
3311;SDS011;1668;49.648;8.570;2022-12-29T11:48:31;2.70;;;1.40;;
3311;SDS011;1668;49.648;8.570;2022-12-29T11:51:05;2.53;;;1.30;;
3311;SDS011;1668;49.648;8.570;2022-12-29T11:53:37;3.40;;;1.33;;
3311;SDS011;1668;49.648;8.570;2022-12-29T11:56:10;2.53;;;1.30;;
3311;SDS011;1668;49.648;8.570;2022-12-29T11:58:40;1.80;;;1.30;;
3311;SDS011;1668;49.648;8.570;2022-12-29T12:01:10;2.37;;;1.57;;
3311;SDS011;1668;49.648;8.570;2022-12-29T12:03:44;3.30;;;1.17;;
3311;SDS011;1668;49.648;8.570;2022-12-29T12:06:18;1.80;;;1.27;;
3311;SDS011;1668;49.648;8.570;2022-12-29T12:08:51;3.73;;;1.23;;
3311;SDS011;1668;49.648;8.570;2022-12-29T12:11:22;3.63;;;1.20;;
3311;SDS011;1668;49.648;8.570;2022-12-29T12:13:58;2.20;;;1.50;;
3311;SDS011;1668;49.648;8.570;2022-12-29T12:16:29;3.53;;;1.50;;
3311;SDS011;1668;49.648;8.570;2022-12-29T12:19:01;5.67;;;1.90;;
3311;SDS011;1668;49.648;8.570;2022-12-29T12:21:38;5.00;;;3.00;;
3311;SDS011;1668;49.648;8.570;2022-12-29T12:24:20;6.37;;;2.70;;
3311;SDS011;1668;49.648;8.570;2022-12-29T12:27:02;4.57;;;2.10;;
3311;SDS011;1668;49.648;8.570;2022-12-29T12:29:35;1.90;;;1.40;;
3311;SDS011;1668;49.648;8.570;2022-12-29T12:32:10;2.30;;;1.33;;
3311;SDS011;1668;49.648;8.570;2022-12-29T12:34:41;1.73;;;1.40;;
3311;SDS011;1668;49.648;8.570;2022-12-29T12:37:15;4.70;;;1.70;;
3311;SDS011;1668;49.648;8.570;2022-12-29T12:40:06;2.30;;;1.50;;
3311;SDS011;1668;49.648;8.570;2022-12-29T12:42:47;3.43;;;1.60;;
3311;SDS011;1668;49.648;8.570;2022-12-29T12:45:30;2.93;;;1.80;;
3311;SDS011;1668;49.648;8.570;2022-12-29T12:48:13;2.80;;;1.67;;
3311;SDS011;1668;49.648;8.570;2022-12-29T12:50:55;5.13;;;2.27;;
3311;SDS011;1668;49.648;8.570;2022-12-29T12:53:36;2.73;;;1.67;;
3311;SDS011;1668;49.648;8.570;2022-12-29T12:56:19;3.10;;;1.70;;
3311;SDS011;1668;49.648;8.570;2022-12-29T12:59:02;4.00;;;2.30;;
3311;SDS011;1668;49.648;8.570;2022-12-29T13:01:38;5.33;;;2.20;;
3311;SDS011;1668;49.648;8.570;2022-12-29T13:07:16;3.00;;;1.37;;
3311;SDS011;1668;49.648;8.570;2022-12-29T13:10:00;3.03;;;1.50;;
3311;SDS011;1668;49.648;8.570;2022-12-29T13:12:39;2.40;;;1.37;;
3311;SDS011;1668;49.648;8.570;2022-12-29T13:15:15;3.20;;;1.17;;
3311;SDS011;1668;49.648;8.570;2022-12-29T13:17:54;2.80;;;1.60;;
3311;SDS011;1668;49.648;8.570;2022-12-29T13:20:28;3.57;;;1.50;;
3311;SDS011;1668;49.648;8.570;2022-12-29T13:23:04;1.97;;;1.10;;
3311;SDS011;1668;49.648;8.570;2022-12-29T13:25:39;3.00;;;2.00;;
3311;SDS011;1668;49.648;8.570;2022-12-29T13:28:13;5.80;;;1.60;;
3311;SDS011;1668;49.648;8.570;2022-12-29T13:30:48;5.50;;;1.53;;
3311;SDS011;1668;49.648;8.570;2022-12-29T13:33:24;4.10;;;1.50;;
3311;SDS011;1668;49.648;8.570;2022-12-29T13:36:00;4.30;;;1.80;;
3311;SDS011;1668;49.648;8.570;2022-12-29T13:38:32;2.93;;;1.70;;
3311;SDS011;1668;49.648;8.570;2022-12-29T13:41:04;2.50;;;1.30;;
3311;SDS011;1668;49.648;8.570;2022-12-29T13:43:35;2.77;;;1.37;;
3311;SDS011;1668;49.648;8.570;2022-12-29T13:46:06;1.50;;;0.90;;
3311;SDS011;1668;49.648;8.570;2022-12-29T13:48:40;2.10;;;1.27;;
3311;SDS011;1668;49.648;8.570;2022-12-29T13:51:11;2.90;;;1.33;;
3311;SDS011;1668;49.648;8.570;2022-12-29T13:53:41;4.57;;;1.90;;
3311;SDS011;1668;49.648;8.570;2022-12-29T13:56:22;2.80;;;2.30;;
3311;SDS011;1668;49.648;8.570;2022-12-29T13:58:56;4.33;;;2.70;;
3311;SDS011;1668;49.648;8.570;2022-12-29T14:01:27;4.70;;;2.17;;
3311;SDS011;1668;49.648;8.570;2022-12-29T14:03:58;5.00;;;1.97;;
3311;SDS011;1668;49.648;8.570;2022-12-29T14:06:27;4.03;;;1.80;;
3311;SDS011;1668;49.648;8.570;2022-12-29T14:08:56;1.97;;;1.10;;
3311;SDS011;1668;49.648;8.570;2022-12-29T14:11:30;2.60;;;1.10;;
3311;SDS011;1668;49.648;8.570;2022-12-29T14:13:58;1.97;;;1.10;;
3311;SDS011;1668;49.648;8.570;2022-12-29T14:16:36;2.80;;;1.37;;
3311;SDS011;1668;49.648;8.570;2022-12-29T14:19:05;3.00;;;1.10;;
3311;SDS011;1668;49.648;8.570;2022-12-29T14:21:37;3.47;;;1.00;;
3311;SDS011;1668;49.648;8.570;2022-12-29T14:33:14;1.73;;;1.17;;
3311;SDS011;1668;49.648;8.570;2022-12-29T14:35:42;3.33;;;1.30;;
3311;SDS011;1668;49.648;8.570;2022-12-29T14:38:18;2.97;;;1.30;;
3311;SDS011;1668;49.648;8.570;2022-12-29T14:40:47;2.23;;;1.10;;
3311;SDS011;1668;49.648;8.570;2022-12-29T14:43:20;2.60;;;1.20;;
3311;SDS011;1668;49.648;8.570;2022-12-29T14:45:54;2.40;;;1.20;;
3311;SDS011;1668;49.648;8.570;2022-12-29T14:48:34;3.60;;;1.90;;
3311;SDS011;1668;49.648;8.570;2022-12-29T14:51:16;5.33;;;1.63;;
3311;SDS011;1668;49.648;8.570;2022-12-29T14:53:54;4.00;;;1.80;;
3311;SDS011;1668;49.648;8.570;2022-12-29T14:56:23;2.97;;;1.97;;
3311;SDS011;1668;49.648;8.570;2022-12-29T14:58:54;4.83;;;2.00;;
3311;SDS011;1668;49.648;8.570;2022-12-29T15:01:24;4.43;;;2.00;;
3311;SDS011;1668;49.648;8.570;2022-12-29T15:03:56;6.23;;;3.37;;
3311;SDS011;1668;49.648;8.570;2022-12-29T15:06:29;3.93;;;2.40;;
3311;SDS011;1668;49.648;8.570;2022-12-29T15:09:00;3.90;;;1.27;;
3311;SDS011;1668;49.648;8.570;2022-12-29T15:11:40;1.97;;;1.23;;
3311;SDS011;1668;49.648;8.570;2022-12-29T15:14:30;3.67;;;1.23;;
3311;SDS011;1668;49.648;8.570;2022-12-29T15:16:58;3.30;;;1.73;;
3311;SDS011;1668;49.648;8.570;2022-12-29T15:19:26;4.40;;;1.33;;
3311;SDS011;1668;49.648;8.570;2022-12-29T15:21:54;3.93;;;1.53;;
3311;SDS011;1668;49.648;8.570;2022-12-29T15:24:21;3.87;;;1.07;;
3311;SDS011;1668;49.648;8.570;2022-12-29T15:26:49;3.40;;;2.07;;
3311;SDS011;1668;49.648;8.570;2022-12-29T15:29:29;3.37;;;2.63;;
3311;SDS011;1668;49.648;8.570;2022-12-29T15:31:58;4.17;;;2.17;;
3311;SDS011;1668;49.648;8.570;2022-12-29T15:34:29;3.23;;;1.77;;
3311;SDS011;1668;49.648;8.570;2022-12-29T15:36:56;4.70;;;1.10;;
3311;SDS011;1668;49.648;8.570;2022-12-29T15:39:27;8.87;;;2.60;;
3311;SDS011;1668;49.648;8.570;2022-12-29T15:41:56;6.03;;;2.87;;
3311;SDS011;1668;49.648;8.570;2022-12-29T15:44:31;6.47;;;4.47;;
3311;SDS011;1668;49.648;8.570;2022-12-29T15:47:02;5.33;;;2.47;;
3311;SDS011;1668;49.648;8.570;2022-12-29T15:49:30;3.63;;;2.40;;
3311;SDS011;1668;49.648;8.570;2022-12-29T15:51:57;3.43;;;2.20;;
3311;SDS011;1668;49.648;8.570;2022-12-29T15:54:26;4.13;;;1.93;;
3311;SDS011;1668;49.648;8.570;2022-12-29T15:56:56;5.67;;;2.13;;